sensor_id;sensor_type;location;lat;lon;timestamp;pressure;altitude;pressure_sealevel;temperature;humidity
5298;BME280;14738;42.668;23.250;2023-09-30T00:00:45;48330.75;;;-141.90;50.70
5298;BME280;14738;42.668;23.250;2023-09-30T00:03:10;48366.47;;;-141.90;50.79
5298;BME280;14738;42.668;23.250;2023-09-30T00:05:37;48348.63;;;-141.90;50.51
5298;BME280;14738;42.668;23.250;2023-09-30T00:08:03;48348.63;;;-141.90;50.78
5298;BME280;14738;42.668;23.250;2023-09-30T00:10:29;48346.63;;;-141.90;50.05
5298;BME280;14738;42.668;23.250;2023-09-30T00:12:56;48370.44;;;-141.90;50.51
5298;BME280;14738;42.668;23.250;2023-09-30T00:15:21;48336.69;;;-141.90;51.18
5298;BME280;14738;42.668;23.250;2023-09-30T00:17:47;48386.34;;;-141.90;51.40
5298;BME280;14738;42.668;23.250;2023-09-30T00:20:12;48356.56;;;-141.90;51.94
5298;BME280;14738;42.668;23.250;2023-09-30T00:22:40;48350.59;;;-141.90;51.87
5298;BME280;14738;42.668;23.250;2023-09-30T00:25:06;48344.63;;;-141.90;51.23
5298;BME280;14738;42.668;23.250;2023-09-30T00:27:31;48354.56;;;-141.90;51.55
5298;BME280;14738;42.668;23.250;2023-09-30T00:29:57;48360.53;;;-141.90;51.28
5298;BME280;14738;42.668;23.250;2023-09-30T00:32:22;48334.72;;;-141.90;51.18
5298;BME280;14738;42.668;23.250;2023-09-30T00:34:48;48374.41;;;-141.90;50.99
5298;BME280;14738;42.668;23.250;2023-09-30T00:37:14;48376.41;;;-141.90;50.51
5298;BME280;14738;42.668;23.250;2023-09-30T00:39:39;48342.66;;;-141.90;51.06
5298;BME280;14738;42.668;23.250;2023-09-30T00:42:04;48358.53;;;-141.90;50.56
5298;BME280;14738;42.668;23.250;2023-09-30T00:44:30;48336.69;;;-141.90;50.57
5298;BME280;14738;42.668;23.250;2023-09-30T00:46:56;48368.47;;;-141.90;51.06
5298;BME280;14738;42.668;23.250;2023-09-30T00:49:23;48376.41;;;-141.90;50.39
5298;BME280;14738;42.668;23.250;2023-09-30T00:51:50;48348.63;;;-141.90;50.54
5298;BME280;14738;42.668;23.250;2023-09-30T00:54:17;48370.44;;;-141.90;50.34
5298;BME280;14738;42.668;23.250;2023-09-30T00:56:46;48378.38;;;-141.90;50.69
5298;BME280;14738;42.668;23.250;2023-09-30T00:59:13;48362.50;;;-141.90;50.16
5298;BME280;14738;42.668;23.250;2023-09-30T01:01:41;48374.41;;;-141.90;50.29
5298;BME280;14738;42.668;23.250;2023-09-30T01:04:07;48334.72;;;-141.90;50.34
5298;BME280;14738;42.668;23.250;2023-09-30T01:06:32;48360.53;;;-141.90;49.82
5298;BME280;14738;42.668;23.250;2023-09-30T01:08:57;48350.59;;;-141.90;50.35
5298;BME280;14738;42.668;23.250;2023-09-30T01:11:24;48352.59;;;-141.90;50.34
5298;BME280;14738;42.668;23.250;2023-09-30T01:13:49;48358.53;;;-141.90;50.03
5298;BME280;14738;42.668;23.250;2023-09-30T01:16:14;48362.50;;;-141.90;50.05
5298;BME280;14738;42.668;23.250;2023-09-30T01:18:40;48368.47;;;-141.90;50.24
5298;BME280;14738;42.668;23.250;2023-09-30T01:21:08;48338.69;;;-141.90;50.50
5298;BME280;14738;42.668;23.250;2023-09-30T01:23:35;48368.47;;;-141.90;50.01
5298;BME280;14738;42.668;23.250;2023-09-30T01:26:08;48358.53;;;-141.90;50.69
5298;BME280;14738;42.668;23.250;2023-09-30T01:28:34;48342.66;;;-141.90;50.58
5298;BME280;14738;42.668;23.250;2023-09-30T01:31:00;48330.75;;;-141.90;49.80
5298;BME280;14738;42.668;23.250;2023-09-30T01:33:26;48366.47;;;-141.90;49.94
5298;BME280;14738;42.668;23.250;2023-09-30T01:35:52;48370.44;;;-141.90;50.30
5298;BME280;14738;42.668;23.250;2023-09-30T01:38:17;48346.63;;;-141.90;51.03
5298;BME280;14738;42.668;23.250;2023-09-30T01:40:43;48376.41;;;-141.90;50.58
5298;BME280;14738;42.668;23.250;2023-09-30T01:43:09;48356.56;;;-141.90;50.64
5298;BME280;14738;42.668;23.250;2023-09-30T01:45:34;48370.44;;;-141.90;50.73
5298;BME280;14738;42.668;23.250;2023-09-30T01:48:01;48358.53;;;-141.90;50.59
5298;BME280;14738;42.668;23.250;2023-09-30T01:50:27;48350.59;;;-141.90;50.55
5298;BME280;14738;42.668;23.250;2023-09-30T01:52:52;48350.59;;;-141.90;50.37
5298;BME280;14738;42.668;23.250;2023-09-30T01:55:17;48358.53;;;-141.90;50.53
5298;BME280;14738;42.668;23.250;2023-09-30T01:57:43;48380.38;;;-141.90;50.37
5298;BME280;14738;42.668;23.250;2023-09-30T02:00:08;48354.56;;;-141.90;50.75
5298;BME280;14738;42.668;23.250;2023-09-30T02:02:34;48358.53;;;-141.90;51.33
5298;BME280;14738;42.668;23.250;2023-09-30T02:05:01;48376.41;;;-141.90;50.20
5298;BME280;14738;42.668;23.250;2023-09-30T02:07:28;48372.44;;;-141.90;50.79
5298;BME280;14738;42.668;23.250;2023-09-30T02:09:54;48348.63;;;-141.90;50.59
5298;BME280;14738;42.668;23.250;2023-09-30T02:12:19;48366.47;;;-141.90;51.06
5298;BME280;14738;42.668;23.250;2023-09-30T02:14:45;48356.56;;;-141.90;50.90
5298;BME280;14738;42.668;23.250;2023-09-30T02:17:11;48350.59;;;-141.90;50.75
5298;BME280;14738;42.668;23.250;2023-09-30T02:19:36;48358.53;;;-141.90;51.20
5298;BME280;14738;42.668;23.250;2023-09-30T02:22:02;48370.44;;;-141.90;51.33
5298;BME280;14738;42.668;23.250;2023-09-30T02:24:27;48362.50;;;-141.90;51.65
5298;BME280;14738;42.668;23.250;2023-09-30T02:26:53;48362.50;;;-141.90;51.67
5298;BME280;14738;42.668;23.250;2023-09-30T02:29:18;48326.78;;;-141.90;51.49
5298;BME280;14738;42.668;23.250;2023-09-30T02:31:43;48352.59;;;-141.90;52.30
5298;BME280;14738;42.668;23.250;2023-09-30T02:34:09;48362.50;;;-141.90;51.84
5298;BME280;14738;42.668;23.250;2023-09-30T02:36:34;48334.72;;;-141.90;52.00
5298;BME280;14738;42.668;23.250;2023-09-30T02:39:05;48346.63;;;-141.90;52.54
5298;BME280;14738;42.668;23.250;2023-09-30T02:41:31;48370.44;;;-141.90;51.97
5298;BME280;14738;42.668;23.250;2023-09-30T02:43:56;48366.47;;;-141.90;52.25
5298;BME280;14738;42.668;23.250;2023-09-30T02:46:22;48368.47;;;-141.90;52.03
5298;BME280;14738;42.668;23.250;2023-09-30T02:48:47;48354.56;;;-141.90;53.58
5298;BME280;14738;42.668;23.250;2023-09-30T02:51:12;48358.53;;;-141.90;54.06
5298;BME280;14738;42.668;23.250;2023-09-30T02:53:38;48348.63;;;-141.90;53.54
5298;BME280;14738;42.668;23.250;2023-09-30T02:56:04;48366.47;;;-141.90;53.92
5298;BME280;14738;42.668;23.250;2023-09-30T02:58:30;48352.59;;;-141.90;54.52
5298;BME280;14738;42.668;23.250;2023-09-30T03:00:55;48378.38;;;-141.90;53.95
5298;BME280;14738;42.668;23.250;2023-09-30T03:03:21;48310.91;;;-141.90;53.07
5298;BME280;14738;42.668;23.250;2023-09-30T03:05:47;48342.66;;;-141.90;53.97
5298;BME280;14738;42.668;23.250;2023-09-30T03:08:14;48346.63;;;-141.90;54.13
5298;BME280;14738;42.668;23.250;2023-09-30T03:10:39;48356.56;;;-141.90;54.49
5298;BME280;14738;42.668;23.250;2023-09-30T03:13:06;48370.44;;;-141.90;54.11
5298;BME280;14738;42.668;23.250;2023-09-30T03:15:32;48330.75;;;-141.90;54.46
5298;BME280;14738;42.668;23.250;2023-09-30T03:17:58;48346.63;;;-141.90;54.74
5298;BME280;14738;42.668;23.250;2023-09-30T03:20:25;48356.56;;;-141.90;54.01
5298;BME280;14738;42.668;23.250;2023-09-30T03:22:50;48362.50;;;-141.90;54.53
5298;BME280;14738;42.668;23.250;2023-09-30T03:25:17;48348.63;;;-141.90;54.62
5298;BME280;14738;42.668;23.250;2023-09-30T03:27:43;48364.50;;;-141.90;55.28
5298;BME280;14738;42.668;23.250;2023-09-30T03:30:09;48354.56;;;-141.90;55.09
5298;BME280;14738;42.668;23.250;2023-09-30T03:32:37;48366.47;;;-141.90;55.13
5298;BME280;14738;42.668;23.250;2023-09-30T03:35:07;48366.47;;;-141.90;54.71
5298;BME280;14738;42.668;23.250;2023-09-30T03:37:33;48360.53;;;-141.90;54.38
5298;BME280;14738;42.668;23.250;2023-09-30T03:40:00;48366.47;;;-141.90;53.98
5298;BME280;14738;42.668;23.250;2023-09-30T03:42:26;48340.66;;;-141.90;54.82
5298;BME280;14738;42.668;23.250;2023-09-30T03:44:51;48364.50;;;-141.90;54.80
5298;BME280;14738;42.668;23.250;2023-09-30T03:47:19;48358.53;;;-141.90;54.99
5298;BME280;14738;42.668;23.250;2023-09-30T03:49:45;48346.63;;;-141.90;54.77
5298;BME280;14738;42.668;23.250;2023-09-30T03:52:11;48366.47;;;-141.90;54.44
5298;BME280;14738;42.668;23.250;2023-09-30T03:54:37;48348.63;;;-141.90;53.64
5298;BME280;14738;42.668;23.250;2023-09-30T03:57:03;48354.56;;;-141.90;53.42
5298;BME280;14738;42.668;23.250;2023-09-30T03:59:28;48370.44;;;-141.90;53.42
5298;BME280;14738;42.668;23.250;2023-09-30T04:01:54;48362.50;;;-141.90;53.49
5298;BME280;14738;42.668;23.250;2023-09-30T04:04:20;48334.72;;;-141.90;53.71
5298;BME280;14738;42.668;23.250;2023-09-30T04:06:46;48360.53;;;-141.90;53.93
5298;BME280;14738;42.668;23.250;2023-09-30T04:09:15;48362.50;;;-141.90;53.40
5298;BME280;14738;42.668;23.250;2023-09-30T04:11:41;48342.66;;;-141.90;53.52
5298;BME280;14738;42.668;23.250;2023-09-30T04:14:08;48358.53;;;-141.90;53.32
5298;BME280;14738;42.668;23.250;2023-09-30T04:16:34;48350.59;;;-141.90;53.88
5298;BME280;14738;42.668;23.250;2023-09-30T04:18:59;48362.50;;;-141.90;53.03
5298;BME280;14738;42.668;23.250;2023-09-30T04:21:26;48358.53;;;-141.90;52.97
5298;BME280;14738;42.668;23.250;2023-09-30T04:23:53;48344.63;;;-141.90;53.77
5298;BME280;14738;42.668;23.250;2023-09-30T04:26:18;48358.53;;;-141.90;53.40
5298;BME280;14738;42.668;23.250;2023-09-30T04:28:44;48390.31;;;-141.90;53.32
5298;BME280;14738;42.668;23.250;2023-09-30T04:31:10;48362.50;;;-141.90;53.81
5298;BME280;14738;42.668;23.250;2023-09-30T04:33:37;48378.38;;;-141.90;53.32
5298;BME280;14738;42.668;23.250;2023-09-30T04:36:02;48368.47;;;-141.90;53.80
5298;BME280;14738;42.668;23.250;2023-09-30T04:38:28;48342.66;;;-141.90;53.32
5298;BME280;14738;42.668;23.250;2023-09-30T04:40:53;48342.66;;;-141.90;52.34
5298;BME280;14738;42.668;23.250;2023-09-30T04:43:20;48354.56;;;-141.90;52.00
5298;BME280;14738;42.668;23.250;2023-09-30T04:45:46;48368.47;;;-141.90;51.53
5298;BME280;14738;42.668;23.250;2023-09-30T04:48:12;48350.59;;;-141.90;51.85
5298;BME280;14738;42.668;23.250;2023-09-30T04:50:39;48354.56;;;-141.90;52.11
5298;BME280;14738;42.668;23.250;2023-09-30T04:53:05;48354.56;;;-141.90;51.66
5298;BME280;14738;42.668;23.250;2023-09-30T04:55:30;48414.13;;;-141.90;50.57
5298;BME280;14738;42.668;23.250;2023-09-30T04:57:55;48372.44;;;-141.90;49.70
5298;BME280;14738;42.668;23.250;2023-09-30T05:00:21;48378.38;;;-141.90;47.63
5298;BME280;14738;42.668;23.250;2023-09-30T05:02:55;48380.38;;;-141.90;45.66
5298;BME280;14738;42.668;23.250;2023-09-30T05:05:21;48402.22;;;-141.90;44.46
5298;BME280;14738;42.668;23.250;2023-09-30T05:07:46;48426.03;;;-141.90;43.76
5298;BME280;14738;42.668;23.250;2023-09-30T05:10:13;48386.34;;;-141.90;42.78
5298;BME280;14738;42.668;23.250;2023-09-30T05:12:43;48386.34;;;-141.90;43.45
5298;BME280;14738;42.668;23.250;2023-09-30T05:15:14;48406.19;;;-141.90;42.02
5298;BME280;14738;42.668;23.250;2023-09-30T05:17:44;48414.13;;;-141.90;39.67
5298;BME280;14738;42.668;23.250;2023-09-30T05:20:10;48477.66;;;-141.90;38.50
5298;BME280;14738;42.668;23.250;2023-09-30T05:22:37;48481.63;;;-141.90;36.86
5298;BME280;14738;42.668;23.250;2023-09-30T05:25:04;48465.75;;;-141.90;35.91
5298;BME280;14738;42.668;23.250;2023-09-30T05:27:29;48485.59;;;-141.90;35.33
5298;BME280;14738;42.668;23.250;2023-09-30T05:29:55;48451.84;;;-141.90;35.37
5298;BME280;14738;42.668;23.250;2023-09-30T05:32:21;48489.56;;;-141.90;34.00
5298;BME280;14738;42.668;23.250;2023-09-30T05:34:47;48509.41;;;-141.90;32.60
5298;BME280;14738;42.668;23.250;2023-09-30T05:37:13;48461.78;;;-141.90;32.58
5298;BME280;14738;42.668;23.250;2023-09-30T05:39:39;48501.47;;;-141.90;32.85
5298;BME280;14738;42.668;23.250;2023-09-30T05:42:04;48497.50;;;-141.90;33.45
5298;BME280;14738;42.668;23.250;2023-09-30T05:44:31;48491.56;;;-141.90;33.48
5298;BME280;14738;42.668;23.250;2023-09-30T05:46:57;48481.63;;;-141.90;33.03
5298;BME280;14738;42.668;23.250;2023-09-30T05:49:22;48497.50;;;-141.90;33.28
5298;BME280;14738;42.668;23.250;2023-09-30T05:51:48;48489.56;;;-141.90;32.07
5298;BME280;14738;42.668;23.250;2023-09-30T05:54:16;48491.56;;;-141.90;32.31
5298;BME280;14738;42.668;23.250;2023-09-30T05:56:41;48533.25;;;-141.90;32.22
5298;BME280;14738;42.668;23.250;2023-09-30T05:59:08;48487.56;;;-141.90;32.38
5298;BME280;14738;42.668;23.250;2023-09-30T06:01:34;48549.13;;;-141.90;31.71
5298;BME280;14738;42.668;23.250;2023-09-30T06:04:00;48497.50;;;-141.90;30.70
5298;BME280;14738;42.668;23.250;2023-09-30T06:06:28;48517.34;;;-141.90;32.29
5298;BME280;14738;42.668;23.250;2023-09-30T06:08:58;48517.34;;;-141.90;30.62
5298;BME280;14738;42.668;23.250;2023-09-30T06:11:23;48535.22;;;-141.90;29.97
5298;BME280;14738;42.668;23.250;2023-09-30T06:13:52;48580.88;;;-141.90;29.88
5298;BME280;14738;42.668;23.250;2023-09-30T06:16:18;48586.84;;;-141.90;28.66
5298;BME280;14738;42.668;23.250;2023-09-30T06:18:44;48610.66;;;-141.90;27.26
5298;BME280;14738;42.668;23.250;2023-09-30T06:21:11;48580.88;;;-141.90;29.06
5298;BME280;14738;42.668;23.250;2023-09-30T06:23:36;48612.66;;;-141.90;28.18
5298;BME280;14738;42.668;23.250;2023-09-30T06:26:02;48628.53;;;-141.90;27.76
5298;BME280;14738;42.668;23.250;2023-09-30T06:28:28;48632.50;;;-141.90;27.52
5298;BME280;14738;42.668;23.250;2023-09-30T06:30:56;48672.22;;;-141.90;26.40
5298;BME280;14738;42.668;23.250;2023-09-30T06:33:22;48604.72;;;-141.90;27.80
5298;BME280;14738;42.668;23.250;2023-09-30T06:35:47;48580.88;;;-141.90;27.73
5298;BME280;14738;42.668;23.250;2023-09-30T06:38:24;48576.91;;;-141.90;28.64
5298;BME280;14738;42.668;23.250;2023-09-30T06:40:50;48549.13;;;-141.90;28.70
5298;BME280;14738;42.668;23.250;2023-09-30T06:43:15;48555.09;;;-141.90;29.86
5298;BME280;14738;42.668;23.250;2023-09-30T06:45:44;48574.94;;;-141.90;29.52
5298;BME280;14738;42.668;23.250;2023-09-30T06:48:10;48572.94;;;-141.90;30.28
5298;BME280;14738;42.668;23.250;2023-09-30T06:50:40;48545.16;;;-141.90;31.14
5298;BME280;14738;42.668;23.250;2023-09-30T06:53:08;48485.59;;;-141.90;31.52
5298;BME280;14738;42.668;23.250;2023-09-30T06:55:36;48525.31;;;-141.90;31.34
5298;BME280;14738;42.668;23.250;2023-09-30T06:58:02;48519.34;;;-141.90;31.20
5298;BME280;14738;42.668;23.250;2023-09-30T07:00:29;48527.28;;;-141.90;31.28
5298;BME280;14738;42.668;23.250;2023-09-30T07:02:54;48489.56;;;-141.90;32.70
5298;BME280;14738;42.668;23.250;2023-09-30T07:05:19;48493.53;;;-141.90;32.53
5298;BME280;14738;42.668;23.250;2023-09-30T07:07:45;48481.63;;;-141.90;32.67
5298;BME280;14738;42.668;23.250;2023-09-30T07:10:11;48459.78;;;-141.90;33.12
5298;BME280;14738;42.668;23.250;2023-09-30T07:12:36;48509.41;;;-141.90;30.69
5298;BME280;14738;42.668;23.250;2023-09-30T07:15:02;48513.38;;;-141.90;30.96
5298;BME280;14738;42.668;23.250;2023-09-30T07:17:28;48525.31;;;-141.90;31.13
5298;BME280;14738;42.668;23.250;2023-09-30T07:19:53;48517.34;;;-141.90;31.02
5298;BME280;14738;42.668;23.250;2023-09-30T07:22:19;48561.03;;;-141.90;31.24
5298;BME280;14738;42.668;23.250;2023-09-30T07:24:44;48515.38;;;-141.90;30.71
5298;BME280;14738;42.668;23.250;2023-09-30T07:27:10;48487.56;;;-141.90;30.49
5298;BME280;14738;42.668;23.250;2023-09-30T07:29:35;48493.53;;;-141.90;31.45
5298;BME280;14738;42.668;23.250;2023-09-30T07:32:00;48493.53;;;-141.90;30.59
5298;BME280;14738;42.668;23.250;2023-09-30T07:34:26;48525.31;;;-141.90;29.49
5298;BME280;14738;42.668;23.250;2023-09-30T07:36:52;48537.22;;;-141.90;29.67
5298;BME280;14738;42.668;23.250;2023-09-30T07:39:18;48505.44;;;-141.90;30.49
5298;BME280;14738;42.668;23.250;2023-09-30T07:41:43;48525.31;;;-141.90;29.24
5298;BME280;14738;42.668;23.250;2023-09-30T07:44:09;48539.19;;;-141.90;29.09
5298;BME280;14738;42.668;23.250;2023-09-30T07:46:35;48535.22;;;-141.90;29.29
5298;BME280;14738;42.668;23.250;2023-09-30T07:49:00;48501.47;;;-141.90;28.15
5298;BME280;14738;42.668;23.250;2023-09-30T07:51:26;48533.25;;;-141.90;28.61
5298;BME280;14738;42.668;23.250;2023-09-30T07:53:51;48501.47;;;-141.90;28.46
5298;BME280;14738;42.668;23.250;2023-09-30T07:56:17;48519.34;;;-141.90;29.17
5298;BME280;14738;42.668;23.250;2023-09-30T07:58:42;48489.56;;;-141.90;28.93
5298;BME280;14738;42.668;23.250;2023-09-30T08:01:08;48481.63;;;-141.90;29.24
5298;BME280;14738;42.668;23.250;2023-09-30T08:03:33;48541.19;;;-141.90;29.29
5298;BME280;14738;42.668;23.250;2023-09-30T08:06:00;48517.34;;;-141.90;28.68
5298;BME280;14738;42.668;23.250;2023-09-30T08:08:25;48509.41;;;-141.90;27.43
5298;BME280;14738;42.668;23.250;2023-09-30T08:10:51;48497.50;;;-141.90;28.20
5298;BME280;14738;42.668;23.250;2023-09-30T08:13:21;48483.59;;;-141.90;28.17
5298;BME280;14738;42.668;23.250;2023-09-30T08:15:46;48491.56;;;-141.90;28.58
5298;BME280;14738;42.668;23.250;2023-09-30T08:18:11;48515.38;;;-141.90;28.15
5298;BME280;14738;42.668;23.250;2023-09-30T08:20:37;48493.53;;;-141.90;28.30
5298;BME280;14738;42.668;23.250;2023-09-30T08:23:03;48513.38;;;-141.90;27.70
5298;BME280;14738;42.668;23.250;2023-09-30T08:25:28;48477.66;;;-141.90;28.41
5298;BME280;14738;42.668;23.250;2023-09-30T08:27:54;48509.41;;;-141.90;28.52
5298;BME280;14738;42.668;23.250;2023-09-30T08:30:19;48537.22;;;-141.90;27.52
5298;BME280;14738;42.668;23.250;2023-09-30T08:32:45;48531.25;;;-141.90;27.12
5298;BME280;14738;42.668;23.250;2023-09-30T08:35:12;48513.38;;;-141.90;26.21
5298;BME280;14738;42.668;23.250;2023-09-30T08:37:39;48501.47;;;-141.90;26.56
5298;BME280;14738;42.668;23.250;2023-09-30T08:40:05;48529.28;;;-141.90;26.80
5298;BME280;14738;42.668;23.250;2023-09-30T08:42:32;48529.28;;;-141.90;26.92
5298;BME280;14738;42.668;23.250;2023-09-30T08:44:59;48511.41;;;-141.90;26.94
5298;BME280;14738;42.668;23.250;2023-09-30T08:47:28;48529.28;;;-141.90;26.53
5298;BME280;14738;42.668;23.250;2023-09-30T08:49:54;48531.25;;;-141.90;26.67
5298;BME280;14738;42.668;23.250;2023-09-30T08:52:23;48521.34;;;-141.90;26.40
5298;BME280;14738;42.668;23.250;2023-09-30T08:54:48;48521.34;;;-141.90;26.68
5298;BME280;14738;42.668;23.250;2023-09-30T08:57:16;48533.25;;;-141.90;26.21
5298;BME280;14738;42.668;23.250;2023-09-30T08:59:44;48533.25;;;-141.90;26.18
5298;BME280;14738;42.668;23.250;2023-09-30T09:02:10;48535.22;;;-141.90;25.83
5298;BME280;14738;42.668;23.250;2023-09-30T09:04:39;48555.09;;;-141.90;25.65
5298;BME280;14738;42.668;23.250;2023-09-30T09:07:06;48529.28;;;-141.90;25.36
5298;BME280;14738;42.668;23.250;2023-09-30T09:09:31;48572.94;;;-141.90;24.95
5298;BME280;14738;42.668;23.250;2023-09-30T09:11:58;48521.34;;;-141.90;25.35
5298;BME280;14738;42.668;23.250;2023-09-30T09:14:41;48509.41;;;-141.90;25.02
5298;BME280;14738;42.668;23.250;2023-09-30T09:17:11;48537.22;;;-141.90;24.47
5298;BME280;14738;42.668;23.250;2023-09-30T09:19:37;48519.34;;;-141.90;24.28
5298;BME280;14738;42.668;23.250;2023-09-30T09:22:03;48533.25;;;-141.90;24.60
5298;BME280;14738;42.668;23.250;2023-09-30T09:24:36;48541.19;;;-141.90;24.61
5298;BME280;14738;42.668;23.250;2023-09-30T09:27:10;48525.31;;;-141.90;24.87
5298;BME280;14738;42.668;23.250;2023-09-30T09:29:37;48576.91;;;-141.90;24.01
5298;BME280;14738;42.668;23.250;2023-09-30T09:32:13;48555.09;;;-141.90;24.63
5298;BME280;14738;42.668;23.250;2023-09-30T09:34:40;48531.25;;;-141.90;23.87
5298;BME280;14738;42.668;23.250;2023-09-30T09:37:15;48537.22;;;-141.90;24.37
5298;BME280;14738;42.668;23.250;2023-09-30T09:39:57;48529.28;;;-141.90;24.33
5298;BME280;14738;42.668;23.250;2023-09-30T09:42:33;48539.19;;;-141.90;23.83
5298;BME280;14738;42.668;23.250;2023-09-30T09:45:04;48547.13;;;-141.90;23.84
5298;BME280;14738;42.668;23.250;2023-09-30T09:47:32;48567.00;;;-141.90;24.11
5298;BME280;14738;42.668;23.250;2023-09-30T09:49:58;48533.25;;;-141.90;23.99
5298;BME280;14738;42.668;23.250;2023-09-30T09:52:25;48555.09;;;-141.90;23.84
5298;BME280;14738;42.668;23.250;2023-09-30T09:54:51;48539.19;;;-141.90;24.43
5298;BME280;14738;42.668;23.250;2023-09-30T09:57:18;48576.91;;;-141.90;23.86
5298;BME280;14738;42.668;23.250;2023-09-30T09:59:47;48565.00;;;-141.90;23.38
5298;BME280;14738;42.668;23.250;2023-09-30T10:02:14;48543.16;;;-141.90;23.40
5298;BME280;14738;42.668;23.250;2023-09-30T10:04:46;48539.19;;;-141.90;23.91
5298;BME280;14738;42.668;23.250;2023-09-30T10:07:15;48549.13;;;-141.90;23.81
5298;BME280;14738;42.668;23.250;2023-09-30T10:09:46;48567.00;;;-141.90;23.90
5298;BME280;14738;42.668;23.250;2023-09-30T10:12:14;48547.13;;;-141.90;24.34
5298;BME280;14738;42.668;23.250;2023-09-30T10:14:40;48541.19;;;-141.90;23.83
5298;BME280;14738;42.668;23.250;2023-09-30T10:17:05;48535.22;;;-141.90;23.50
5298;BME280;14738;42.668;23.250;2023-09-30T10:19:31;48513.38;;;-141.90;23.66
5298;BME280;14738;42.668;23.250;2023-09-30T10:24:41;48549.13;;;-141.90;23.55
5298;BME280;14738;42.668;23.250;2023-09-30T10:29:48;48572.94;;;-141.90;23.80
5298;BME280;14738;42.668;23.250;2023-09-30T10:32:15;48568.97;;;-141.90;23.68
5298;BME280;14738;42.668;23.250;2023-09-30T10:34:48;48582.88;;;-141.90;23.68
5298;BME280;14738;42.668;23.250;2023-09-30T10:37:21;48545.16;;;-141.90;23.25
5298;BME280;14738;42.668;23.250;2023-09-30T10:39:54;48565.00;;;-141.90;23.10
5298;BME280;14738;42.668;23.250;2023-09-30T10:42:45;48551.09;;;-141.90;22.59
5298;BME280;14738;42.668;23.250;2023-09-30T10:53:21;48574.94;;;-141.90;21.89
5298;BME280;14738;42.668;23.250;2023-09-30T10:55:47;48561.03;;;-141.90;22.16
5298;BME280;14738;42.668;23.250;2023-09-30T10:58:19;48592.81;;;-141.90;21.91
5298;BME280;14738;42.668;23.250;2023-09-30T11:00:54;48598.75;;;-141.90;21.83
5298;BME280;14738;42.668;23.250;2023-09-30T11:03:20;48565.00;;;-141.90;21.80
5298;BME280;14738;42.668;23.250;2023-09-30T11:05:50;48586.84;;;-141.90;21.59
5298;BME280;14738;42.668;23.250;2023-09-30T11:08:21;48563.03;;;-141.90;21.82
5298;BME280;14738;42.668;23.250;2023-09-30T11:10:51;48567.00;;;-141.90;21.74
5298;BME280;14738;42.668;23.250;2023-09-30T11:13:18;48529.28;;;-141.90;21.96
5298;BME280;14738;42.668;23.250;2023-09-30T11:15:44;48545.16;;;-141.90;21.79
5298;BME280;14738;42.668;23.250;2023-09-30T11:18:17;48576.91;;;-141.90;21.80
5298;BME280;14738;42.668;23.250;2023-09-30T11:20:44;48594.78;;;-141.90;21.35
5298;BME280;14738;42.668;23.250;2023-09-30T11:23:13;48596.78;;;-141.90;21.63
5298;BME280;14738;42.668;23.250;2023-09-30T11:25:39;48555.09;;;-141.90;21.90
5298;BME280;14738;42.668;23.250;2023-09-30T11:30:59;48568.97;;;-141.90;21.75
5298;BME280;14738;42.668;23.250;2023-09-30T11:33:25;48541.19;;;-141.90;21.60
5298;BME280;14738;42.668;23.250;2023-09-30T11:36:03;48576.91;;;-141.90;21.74
5298;BME280;14738;42.668;23.250;2023-09-30T11:38:29;48580.88;;;-141.90;21.49
5298;BME280;14738;42.668;23.250;2023-09-30T11:41:02;48586.84;;;-141.90;21.72
5298;BME280;14738;42.668;23.250;2023-09-30T11:43:30;48565.00;;;-141.90;21.65
5298;BME280;14738;42.668;23.250;2023-09-30T11:48:31;48572.94;;;-141.90;22.33
5298;BME280;14738;42.668;23.250;2023-09-30T11:50:59;48547.13;;;-141.90;21.68
5298;BME280;14738;42.668;23.250;2023-09-30T11:53:26;48555.09;;;-141.90;21.95
5298;BME280;14738;42.668;23.250;2023-09-30T11:55:52;48549.13;;;-141.90;22.21
5298;BME280;14738;42.668;23.250;2023-09-30T11:58:21;48596.78;;;-141.90;22.04
5298;BME280;14738;42.668;23.250;2023-09-30T12:00:47;48580.88;;;-141.90;22.35
5298;BME280;14738;42.668;23.250;2023-09-30T12:03:16;48572.94;;;-141.90;22.47
5298;BME280;14738;42.668;23.250;2023-09-30T12:05:41;48541.19;;;-141.90;22.19
5298;BME280;14738;42.668;23.250;2023-09-30T12:08:07;48582.88;;;-141.90;22.37
5298;BME280;14738;42.668;23.250;2023-09-30T12:10:32;48574.94;;;-141.90;22.37
5298;BME280;14738;42.668;23.250;2023-09-30T12:12:58;48588.84;;;-141.90;22.18
5298;BME280;14738;42.668;23.250;2023-09-30T12:15:23;48568.97;;;-141.90;22.09
5298;BME280;14738;42.668;23.250;2023-09-30T12:17:49;48584.84;;;-141.90;22.57
5298;BME280;14738;42.668;23.250;2023-09-30T12:20:14;48572.94;;;-141.90;21.96
5298;BME280;14738;42.668;23.250;2023-09-30T12:22:43;48572.94;;;-141.90;22.41
5298;BME280;14738;42.668;23.250;2023-09-30T12:25:08;48565.00;;;-141.90;22.31
5298;BME280;14738;42.668;23.250;2023-09-30T12:27:34;48565.00;;;-141.90;22.57
5298;BME280;14738;42.668;23.250;2023-09-30T12:29:59;48572.94;;;-141.90;21.77
5298;BME280;14738;42.668;23.250;2023-09-30T12:32:29;48567.00;;;-141.90;22.08
5298;BME280;14738;42.668;23.250;2023-09-30T12:34:55;48553.09;;;-141.90;22.14
5298;BME280;14738;42.668;23.250;2023-09-30T12:37:20;48588.84;;;-141.90;22.27
5298;BME280;14738;42.668;23.250;2023-09-30T12:39:45;48565.00;;;-141.90;21.56
5298;BME280;14738;42.668;23.250;2023-09-30T12:42:14;48578.91;;;-141.90;22.04
5298;BME280;14738;42.668;23.250;2023-09-30T12:44:41;48537.22;;;-141.90;22.01
5298;BME280;14738;42.668;23.250;2023-09-30T12:47:06;48582.88;;;-141.90;21.90
5298;BME280;14738;42.668;23.250;2023-09-30T12:49:31;48590.81;;;-141.90;22.10
5298;BME280;14738;42.668;23.250;2023-09-30T12:51:57;48563.03;;;-141.90;21.97
5298;BME280;14738;42.668;23.250;2023-09-30T12:54:24;48531.25;;;-141.90;22.04
5298;BME280;14738;42.668;23.250;2023-09-30T12:56:50;48576.91;;;-141.90;21.74